Citadel — PBOK — position and weather

sailwx.info

Track history (hours):
 
Tides and Currents Weather Stations Pressure Air Temp Water Temp Dewpoint Dewpoint Depression Visibility Wind Speed Wind Dir Waves Ship Positions

Citadel

Last reported at 2016-May-04 04:33 UTC. Time now 2016-May-04 06:05 UTC.
Position N 50°32' E 000°10'.

Length 111 m; draft 6.4 m.

Type: Cargo ship. MMSI: 245977000.

Date/timePositionNaut miles runAvg speedWind from/ knotsBaromVisibWave heightAir tempDewpointWater temp
2016-May-04 04:33N 50°32' E 000°10'1110.5
2016-May-04 03:29N 50°35' E 000°27'2411.7
2016-May-04 01:25N 50°47' E 000°60'1011.1
2016-May-04 00:33N 50°53' E 001°13'1010.1
2016-May-03 23:33N 50°59' E 001°25'9 8.6
2016-May-03 22:33N 51°04' E 001°36'9 8.7
2016-May-03 21:33N 51°02' E 001°49'8 8.3
2016-May-03 20:33N 51°03' E 002°02'9 9.0
2016-May-03 19:33N 51°04' E 002°17'3 1.5
2016-May-03 17:25N 51°03' E 002°21'0 0.0
2016-May-03 16:22N 51°03' E 002°21'0 0.0
2016-May-03 00:03N 51°03' E 002°21'0 0.0
2016-May-02 17:21N 51°03' E 002°21'2 2.3
2016-May-02 16:33N 51°04' E 002°19'1312.5
2016-May-02 15:32N 51°02' E 001°59'5 5.2
2016-May-02 14:33N 51°03' E 001°51'1 1.1
2016-May-02 13:31N 51°04' E 001°52'0 0.0
2016-May-02 12:28N 51°04' E 001°52'0 0.0
2016-May-02 11:33N 51°04' E 001°52'0 0.0
2016-May-02 10:27N 51°04' E 001°52'0 0.0
2016-May-02 09:32N 51°04' E 001°52'0 0.0
2016-May-02 08:32N 51°04' E 001°52'0 0.0
2016-May-02 07:32N 51°04' E 001°52'0 0.0
2016-May-02 06:31N 51°04' E 001°52'0 0.0
2016-May-02 05:31N 51°04' E 001°52'0 0.0
2016-May-02 04:33N 51°04' E 001°52'0 0.1
2016-May-02 03:33N 51°04' E 001°51'0 0.0
2016-May-02 02:32N 51°04' E 001°51'0 0.0
2016-May-02 01:32N 51°04' E 001°51'0 0.1
2016-May-02 00:29N 51°04' E 001°51'0 0.1
2016-May-01 23:31N 51°04' E 001°52'0 0.0
2016-May-01 22:31N 51°04' E 001°52'0 0.0
2016-May-01 21:34N 51°04' E 001°52'0 0.0
2016-May-01 20:33N 51°04' E 001°52'0 0.0
2016-May-01 19:32N 51°04' E 001°52'0 0.0
2016-May-01 18:32N 51°04' E 001°52'0 0.0
2016-May-01 17:32N 51°04' E 001°52'0 0.0
2016-May-01 16:31N 51°04' E 001°51'0 0.1
2016-May-01 15:31N 51°04' E 001°51'0 0.0
2016-May-01 14:33N 51°04' E 001°51'0 0.0
2016-May-01 13:33N 51°04' E 001°51'0 0.0
2016-May-01 12:29N 51°04' E 001°51'0 0.0
2016-May-01 11:29N 51°04' E 001°51'0 0.0
2016-May-01 10:31N 51°04' E 001°51'0 0.1
2016-May-01 09:31N 51°04' E 001°51'0 0.0
2016-May-01 08:31N 51°04' E 001°51'0 0.0
2016-May-01 07:33N 51°04' E 001°51'0 0.0
2016-May-01 06:33N 51°04' E 001°51'0 0.0
2016-May-01 05:32N 51°04' E 001°51'0 0.0
2016-May-01 04:32N 51°04' E 001°51'0 0.1
2016-May-01 03:31N 51°04' E 001°51'0 0.1
2016-May-01 02:31N 51°04' E 001°51'0 0.0
2016-May-01 01:31N 51°04' E 001°51'0 0.0
2016-May-01 00:33N 51°04' E 001°51'0 0.0
2016-Apr-30 23:30N 51°04' E 001°51'0 0.0
2016-Apr-30 22:29N 51°04' E 001°51'0 0.0
2016-Apr-30 21:29N 51°04' E 001°51'0 0.1
2016-Apr-30 20:31N 51°04' E 001°51'0 0.0
2016-Apr-30 19:25N 51°04' E 001°51'0 0.0
2016-Apr-30 18:34N 51°04' E 001°51'0 0.0
2016-Apr-30 17:33N 51°04' E 001°51'0 0.0
2016-Apr-30 16:33N 51°04' E 001°51'0 0.1
2016-Apr-30 15:32N 51°04' E 001°51'0 0.0
2016-Apr-30 14:32N 51°04' E 001°51'0 0.0
2016-Apr-30 13:33N 51°04' E 001°51'3 2.5
2016-Apr-30 12:33N 51°05' E 001°48'1111.4
2016-Apr-30 11:33N 51°15' E 001°40'1413.9
2016-Apr-30 10:33N 51°29' E 001°44'1312.6
2016-Apr-30 09:33N 51°42' E 001°44'1111.0
2016-Apr-30 08:33N 51°51' E 001°36'1110.7
2016-Apr-30 07:33N 51°55' E 001°20'8 8.2
2016-Apr-30 06:34N 52°01' E 001°10'1 1.1
2016-Apr-30 05:32N 52°02' E 001°09'0 0.0
2016-Apr-30 04:32N 52°02' E 001°09'0 0.0
2016-Apr-30 03:31N 52°02' E 001°09'0 0.0
2016-Apr-30 02:31N 52°02' E 001°09'0 0.0
2016-Apr-30 01:33N 52°02' E 001°09'0 0.0
2016-Apr-30 00:33N 52°02' E 001°09'0 0.0
2016-Apr-29 23:33N 52°02' E 001°09'0 0.0
2016-Apr-29 22:32N 52°02' E 001°09'0 0.0
2016-Apr-29 21:32N 52°02' E 001°09'0 0.0
2016-Apr-29 20:31N 52°02' E 001°09'0 0.0
2016-Apr-29 19:31N 52°02' E 001°09'0 0.0
2016-Apr-29 18:33N 52°02' E 001°09'0 0.0
2016-Apr-29 17:33N 52°02' E 001°09'0 0.0
2016-Apr-29 16:33N 52°02' E 001°09'0 0.0
2016-Apr-29 15:32N 52°02' E 001°09'0 0.0
2016-Apr-29 14:32N 52°02' E 001°09'0 0.0
2016-Apr-29 13:28N 52°02' E 001°09'0 0.0
2016-Apr-29 12:31N 52°02' E 001°09'0 0.0
2016-Apr-29 11:33N 52°02' E 001°09'0 0.0
2016-Apr-29 10:33N 52°02' E 001°09'0 0.0
2016-Apr-29 09:32N 52°02' E 001°09'0 0.0
2016-Apr-29 08:32N 52°02' E 001°09'0 0.0
2016-Apr-29 07:32N 52°02' E 001°09'0 0.0
2016-Apr-29 06:33N 52°02' E 001°09'0 0.0
2016-Apr-29 05:33N 52°02' E 001°09'0 0.0
2016-Apr-29 04:33N 52°02' E 001°09'0 0.0
2016-Apr-29 03:33N 52°02' E 001°09'0 0.0
2016-Apr-29 02:33N 52°02' E 001°09'0 0.0
2016-Apr-29 01:33N 52°02' E 001°09'0 0.0
2016-Apr-29 00:33N 52°02' E 001°09'0 0.0
2016-Apr-28 23:33N 52°02' E 001°09'0 0.0
2016-Apr-28 22:33N 52°02' E 001°09'0 0.0
2016-Apr-28 21:33N 52°02' E 001°09'0 0.0
2016-Apr-28 20:33N 52°02' E 001°09'0 0.0
2016-Apr-28 19:33N 52°02' E 001°09'0 0.0
2016-Apr-28 18:33N 52°02' E 001°09'0 0.0
2016-Apr-28 17:33N 52°02' E 001°09'0 0.0
2016-Apr-28 16:33N 52°02' E 001°09'0 0.0
2016-Apr-28 15:33N 52°02' E 001°09'0 0.0
2016-Apr-28 14:33N 52°02' E 001°09'0 0.0
2016-Apr-28 13:33N 52°02' E 001°09'0 0.0
2016-Apr-28 12:33N 52°02' E 001°09'0 0.0
2016-Apr-28 11:33N 52°02' E 001°09'0 0.0
2016-Apr-28 10:33N 52°02' E 001°09'0 0.0
2016-Apr-28 09:33N 52°02' E 001°09'0 0.0
2016-Apr-28 08:33N 52°02' E 001°09'0 0.0
2016-Apr-28 07:33N 52°02' E 001°09'0 0.0
2016-Apr-28 06:33N 52°02' E 001°09'0 0.0
2016-Apr-28 05:33N 52°02' E 001°09'0 0.0
2016-Apr-28 04:33N 52°02' E 001°09'0 0.0
2016-Apr-28 03:33N 52°02' E 001°09'0 0.0
2016-Apr-28 02:33N 52°02' E 001°09'0 0.0
2016-Apr-28 01:33N 52°02' E 001°09'0 0.0
2016-Apr-28 00:33N 52°02' E 001°09'0 0.0
2016-Apr-27 23:33N 52°02' E 001°09'0 0.0
2016-Apr-27 22:33N 52°02' E 001°09'0 0.0
2016-Apr-27 21:33N 52°02' E 001°09'0 0.0
2016-Apr-27 20:33N 52°02' E 001°09'0 0.0
2016-Apr-27 19:33N 52°02' E 001°09'0 0.0
2016-Apr-27 18:33N 52°02' E 001°09'0 0.0
2016-Apr-27 17:33N 52°02' E 001°09'0 0.0
2016-Apr-27 16:33N 52°02' E 001°09'5 4.8
2016-Apr-27 15:33N 51°59' E 001°16'5 5.1
2016-Apr-27 14:33N 51°56' E 001°21'6 6.4
2016-Apr-27 13:34N 51°57' E 001°31'0 0.2
2016-Apr-27 12:33N 51°57' E 001°31'0 0.0
2016-Apr-27 11:33N 51°57' E 001°31'0 0.0
2016-Apr-27 10:32N 51°57' E 001°31'0 0.0
2016-Apr-27 09:32N 51°57' E 001°31'0 0.1
2016-Apr-27 08:31N 51°57' E 001°31'0 0.1
2016-Apr-27 07:31N 51°58' E 001°31'0 0.0
2016-Apr-27 06:33N 51°58' E 001°31'0 0.0
2016-Apr-27 05:34N 51°58' E 001°31'0 0.0
2016-Apr-27 04:34N 51°58' E 001°31'0 0.0
2016-Apr-27 03:34N 51°58' E 001°31'0 0.1
2016-Apr-27 02:33N 51°57' E 001°31'0 0.1
2016-Apr-27 01:34N 51°57' E 001°31'0 0.1
2016-Apr-27 00:33N 51°57' E 001°31'0 0.0
2016-Apr-26 23:33N 51°57' E 001°31'1 0.7
2016-Apr-26 22:34N 51°57' E 001°32'7 7.2
2016-Apr-26 21:33N 51°52' E 001°40'7 7.1
2016-Apr-26 20:34N 51°46' E 001°47'10 9.7
2016-Apr-26 19:33N 51°37' E 001°48'1010.0
2016-Apr-26 18:33N 51°27' E 001°44'1110.8
2016-Apr-26 17:34N 51°16' E 001°41'9 9.2
2016-Apr-26 16:33N 51°07' E 001°41'1211.9
2016-Apr-26 15:34N 50°57' E 001°29'5711.2
2016-Apr-26 10:29N 50°24' E 000°17'1212.3
2016-Apr-26 09:31N 50°20' W 000°01'1111.7
2016-Apr-26 08:33N 50°17' W 000°18'18910.3
2016-Apr-25 14:07N 48°54' W 004°41'610.3
2016-Apr-25 13:33N 48°51' W 004°48'10 9.7
2016-Apr-25 12:33N 48°45' W 004°60'9 9.3
2016-Apr-25 11:33N 48°40' W 005°11'9 9.1
2016-Apr-25 10:33N 48°33' W 005°20'22 8.9
2016-Apr-25 08:04N 48°11' W 005°15'710.2
2016-Apr-25 07:21N 48°04' W 005°12'  
Track history (hours):
 
Tides and Currents Weather Stations Pressure Air Temp Water Temp Dewpoint Dewpoint Depression Visibility Wind Speed Wind Dir Waves Ship Positions

Citadel

Last reported at 2016-May-04 04:33 UTC. Time now 2016-May-04 06:05 UTC.
Position N 50°32' E 000°10'.

Length 111 m; draft 6.4 m.

Type: Cargo ship. MMSI: 245977000.

Date/timePositionNaut miles runAvg speedWind from/ knotsBaromVisibWave heightAir tempDewpointWater temp
2016-May-04 04:33N 50°32' E 000°10'1110.5
2016-May-04 03:29N 50°35' E 000°27'2411.7
2016-May-04 01:25N 50°47' E 000°60'1011.1
2016-May-04 00:33N 50°53' E 001°13'1010.1
2016-May-03 23:33N 50°59' E 001°25'9 8.6
2016-May-03 22:33N 51°04' E 001°36'9 8.7
2016-May-03 21:33N 51°02' E 001°49'8 8.3
2016-May-03 20:33N 51°03' E 002°02'9 9.0
2016-May-03 19:33N 51°04' E 002°17'3 1.5
2016-May-03 17:25N 51°03' E 002°21'0 0.0
2016-May-03 16:22N 51°03' E 002°21'0 0.0
2016-May-03 00:03N 51°03' E 002°21'0 0.0
2016-May-02 17:21N 51°03' E 002°21'2 2.3
2016-May-02 16:33N 51°04' E 002°19'1312.5
2016-May-02 15:32N 51°02' E 001°59'5 5.2
2016-May-02 14:33N 51°03' E 001°51'1 1.1
2016-May-02 13:31N 51°04' E 001°52'0 0.0
2016-May-02 12:28N 51°04' E 001°52'0 0.0
2016-May-02 11:33N 51°04' E 001°52'0 0.0
2016-May-02 10:27N 51°04' E 001°52'0 0.0
2016-May-02 09:32N 51°04' E 001°52'0 0.0
2016-May-02 08:32N 51°04' E 001°52'0 0.0
2016-May-02 07:32N 51°04' E 001°52'0 0.0
2016-May-02 06:31N 51°04' E 001°52'0 0.0
2016-May-02 05:31N 51°04' E 001°52'0 0.0
2016-May-02 04:33N 51°04' E 001°52'0 0.1
2016-May-02 03:33N 51°04' E 001°51'0 0.0
2016-May-02 02:32N 51°04' E 001°51'0 0.0
2016-May-02 01:32N 51°04' E 001°51'0 0.1
2016-May-02 00:29N 51°04' E 001°51'0 0.1
2016-May-01 23:31N 51°04' E 001°52'0 0.0
2016-May-01 22:31N 51°04' E 001°52'0 0.0
2016-May-01 21:34N 51°04' E 001°52'0 0.0
2016-May-01 20:33N 51°04' E 001°52'0 0.0
2016-May-01 19:32N 51°04' E 001°52'0 0.0
2016-May-01 18:32N 51°04' E 001°52'0 0.0
2016-May-01 17:32N 51°04' E 001°52'0 0.0
2016-May-01 16:31N 51°04' E 001°51'0 0.1
2016-May-01 15:31N 51°04' E 001°51'0 0.0
2016-May-01 14:33N 51°04' E 001°51'0 0.0
2016-May-01 13:33N 51°04' E 001°51'0 0.0
2016-May-01 12:29N 51°04' E 001°51'0 0.0
2016-May-01 11:29N 51°04' E 001°51'0 0.0
2016-May-01 10:31N 51°04' E 001°51'0 0.1
2016-May-01 09:31N 51°04' E 001°51'0 0.0
2016-May-01 08:31N 51°04' E 001°51'0 0.0
2016-May-01 07:33N 51°04' E 001°51'0 0.0
2016-May-01 06:33N 51°04' E 001°51'0 0.0
2016-May-01 05:32N 51°04' E 001°51'0 0.0
2016-May-01 04:32N 51°04' E 001°51'0 0.1
2016-May-01 03:31N 51°04' E 001°51'0 0.1
2016-May-01 02:31N 51°04' E 001°51'0 0.0
2016-May-01 01:31N 51°04' E 001°51'0 0.0
2016-May-01 00:33N 51°04' E 001°51'0 0.0
2016-Apr-30 23:30N 51°04' E 001°51'0 0.0
2016-Apr-30 22:29N 51°04' E 001°51'0 0.0
2016-Apr-30 21:29N 51°04' E 001°51'0 0.1
2016-Apr-30 20:31N 51°04' E 001°51'0 0.0
2016-Apr-30 19:25N 51°04' E 001°51'0 0.0
2016-Apr-30 18:34N 51°04' E 001°51'0 0.0
2016-Apr-30 17:33N 51°04' E 001°51'0 0.0
2016-Apr-30 16:33N 51°04' E 001°51'0 0.1
2016-Apr-30 15:32N 51°04' E 001°51'0 0.0
2016-Apr-30 14:32N 51°04' E 001°51'0 0.0
2016-Apr-30 13:33N 51°04' E 001°51'3 2.5
2016-Apr-30 12:33N 51°05' E 001°48'1111.4
2016-Apr-30 11:33N 51°15' E 001°40'1413.9
2016-Apr-30 10:33N 51°29' E 001°44'1312.6
2016-Apr-30 09:33N 51°42' E 001°44'1111.0
2016-Apr-30 08:33N 51°51' E 001°36'1110.7
2016-Apr-30 07:33N 51°55' E 001°20'8 8.2
2016-Apr-30 06:34N 52°01' E 001°10'1 1.1
2016-Apr-30 05:32N 52°02' E 001°09'0 0.0
2016-Apr-30 04:32N 52°02' E 001°09'0 0.0
2016-Apr-30 03:31N 52°02' E 001°09'0 0.0
2016-Apr-30 02:31N 52°02' E 001°09'0 0.0
2016-Apr-30 01:33N 52°02' E 001°09'0 0.0
2016-Apr-30 00:33N 52°02' E 001°09'0 0.0
2016-Apr-29 23:33N 52°02' E 001°09'0 0.0
2016-Apr-29 22:32N 52°02' E 001°09'0 0.0
2016-Apr-29 21:32N 52°02' E 001°09'0 0.0
2016-Apr-29 20:31N 52°02' E 001°09'0 0.0
2016-Apr-29 19:31N 52°02' E 001°09'0 0.0
2016-Apr-29 18:33N 52°02' E 001°09'0 0.0
2016-Apr-29 17:33N 52°02' E 001°09'0 0.0
2016-Apr-29 16:33N 52°02' E 001°09'0 0.0
2016-Apr-29 15:32N 52°02' E 001°09'0 0.0
2016-Apr-29 14:32N 52°02' E 001°09'0 0.0
2016-Apr-29 13:28N 52°02' E 001°09'0 0.0
2016-Apr-29 12:31N 52°02' E 001°09'0 0.0
2016-Apr-29 11:33N 52°02' E 001°09'0 0.0
2016-Apr-29 10:33N 52°02' E 001°09'0 0.0
2016-Apr-29 09:32N 52°02' E 001°09'0 0.0
2016-Apr-29 08:32N 52°02' E 001°09'0 0.0
2016-Apr-29 07:32N 52°02' E 001°09'0 0.0
2016-Apr-29 06:33N 52°02' E 001°09'0 0.0
2016-Apr-29 05:33N 52°02' E 001°09'0 0.0
2016-Apr-29 04:33N 52°02' E 001°09'0 0.0
2016-Apr-29 03:33N 52°02' E 001°09'0 0.0
2016-Apr-29 02:33N 52°02' E 001°09'0 0.0
2016-Apr-29 01:33N 52°02' E 001°09'0 0.0
2016-Apr-29 00:33N 52°02' E 001°09'0 0.0
2016-Apr-28 23:33N 52°02' E 001°09'0 0.0
2016-Apr-28 22:33N 52°02' E 001°09'0 0.0
2016-Apr-28 21:33N 52°02' E 001°09'0 0.0
2016-Apr-28 20:33N 52°02' E 001°09'0 0.0
2016-Apr-28 19:33N 52°02' E 001°09'0 0.0
2016-Apr-28 18:33N 52°02' E 001°09'0 0.0
2016-Apr-28 17:33N 52°02' E 001°09'0 0.0
2016-Apr-28 16:33N 52°02' E 001°09'0 0.0
2016-Apr-28 15:33N 52°02' E 001°09'0 0.0
2016-Apr-28 14:33N 52°02' E 001°09'0 0.0
2016-Apr-28 13:33N 52°02' E 001°09'0 0.0
2016-Apr-28 12:33N 52°02' E 001°09'0 0.0
2016-Apr-28 11:33N 52°02' E 001°09'0 0.0
2016-Apr-28 10:33N 52°02' E 001°09'0 0.0
2016-Apr-28 09:33N 52°02' E 001°09'0 0.0
2016-Apr-28 08:33N 52°02' E 001°09'0 0.0
2016-Apr-28 07:33N 52°02' E 001°09'0 0.0
2016-Apr-28 06:33N 52°02' E 001°09'0 0.0
2016-Apr-28 05:33N 52°02' E 001°09'0 0.0
2016-Apr-28 04:33N 52°02' E 001°09'0 0.0
2016-Apr-28 03:33N 52°02' E 001°09'0 0.0
2016-Apr-28 02:33N 52°02' E 001°09'0 0.0
2016-Apr-28 01:33N 52°02' E 001°09'0 0.0
2016-Apr-28 00:33N 52°02' E 001°09'0 0.0
2016-Apr-27 23:33N 52°02' E 001°09'0 0.0
2016-Apr-27 22:33N 52°02' E 001°09'0 0.0
2016-Apr-27 21:33N 52°02' E 001°09'0 0.0
2016-Apr-27 20:33N 52°02' E 001°09'0 0.0
2016-Apr-27 19:33N 52°02' E 001°09'0 0.0
2016-Apr-27 18:33N 52°02' E 001°09'0 0.0
2016-Apr-27 17:33N 52°02' E 001°09'0 0.0
2016-Apr-27 16:33N 52°02' E 001°09'5 4.8
2016-Apr-27 15:33N 51°59' E 001°16'5 5.1
2016-Apr-27 14:33N 51°56' E 001°21'6 6.4
2016-Apr-27 13:34N 51°57' E 001°31'0 0.2
2016-Apr-27 12:33N 51°57' E 001°31'0 0.0
2016-Apr-27 11:33N 51°57' E 001°31'0 0.0
2016-Apr-27 10:32N 51°57' E 001°31'0 0.0
2016-Apr-27 09:32N 51°57' E 001°31'0 0.1
2016-Apr-27 08:31N 51°57' E 001°31'0 0.1
2016-Apr-27 07:31N 51°58' E 001°31'0 0.0
2016-Apr-27 06:33N 51°58' E 001°31'0 0.0
2016-Apr-27 05:34N 51°58' E 001°31'0 0.0
2016-Apr-27 04:34N 51°58' E 001°31'0 0.0
2016-Apr-27 03:34N 51°58' E 001°31'0 0.1
2016-Apr-27 02:33N 51°57' E 001°31'0 0.1
2016-Apr-27 01:34N 51°57' E 001°31'0 0.1
2016-Apr-27 00:33N 51°57' E 001°31'0 0.0
2016-Apr-26 23:33N 51°57' E 001°31'1 0.7
2016-Apr-26 22:34N 51°57' E 001°32'7 7.2
2016-Apr-26 21:33N 51°52' E 001°40'7 7.1
2016-Apr-26 20:34N 51°46' E 001°47'10 9.7
2016-Apr-26 19:33N 51°37' E 001°48'1010.0
2016-Apr-26 18:33N 51°27' E 001°44'1110.8
2016-Apr-26 17:34N 51°16' E 001°41'9 9.2
2016-Apr-26 16:33N 51°07' E 001°41'1211.9
2016-Apr-26 15:34N 50°57' E 001°29'5711.2
2016-Apr-26 10:29N 50°24' E 000°17'1212.3
2016-Apr-26 09:31N 50°20' W 000°01'1111.7
2016-Apr-26 08:33N 50°17' W 000°18'18910.3
2016-Apr-25 14:07N 48°54' W 004°41'610.3
2016-Apr-25 13:33N 48°51' W 004°48'10 9.7
2016-Apr-25 12:33N 48°45' W 004°60'9 9.3
2016-Apr-25 11:33N 48°40' W 005°11'9 9.1
2016-Apr-25 10:33N 48°33' W 005°20'22 8.9
2016-Apr-25 08:04N 48°11' W 005°15'710.2
2016-Apr-25 07:21N 48°04' W 005°12'  

Dump ship's entire track history